createdAt,value
2019-03-24T00:00:08.233Z,25.70
2019-03-24T00:02:37.142Z,30.90
2019-03-24T00:05:07.416Z,33.90
2019-03-24T00:07:36.360Z,36.13
2019-03-24T00:10:07.247Z,37.73
2019-03-24T00:12:36.196Z,41.70
2019-03-24T00:15:07.617Z,33.40
2019-03-24T00:17:36.620Z,39.30
2019-03-24T00:20:07.026Z,36.93
2019-03-24T00:22:35.965Z,28.43
2019-03-24T00:25:06.770Z,42.60
2019-03-24T00:27:35.722Z,32.43
2019-03-24T00:30:07.422Z,33.90
2019-03-24T00:32:36.481Z,51.43
2019-03-24T00:35:07.780Z,34.73
2019-03-24T00:37:36.719Z,32.83
2019-03-24T00:40:07.621Z,40.17
2019-03-24T00:42:36.577Z,46.90
2019-03-24T00:45:09.428Z,25.30
2019-03-24T00:47:38.367Z,37.20
2019-03-24T00:50:07.978Z,31.20
2019-03-24T00:52:36.919Z,26.20
2019-03-24T00:55:07.228Z,37.07
2019-03-24T00:57:37.639Z,31.33
2019-03-24T01:00:08.586Z,31.03
2019-03-24T01:02:37.956Z,35.10
2019-03-24T01:05:08.625Z,33.70
2019-03-24T01:07:37.578Z,36.03
2019-03-24T01:10:09.770Z,41.53
2019-03-24T01:12:38.717Z,25.73
2019-03-24T01:15:08.137Z,32.97
2019-03-24T01:17:38.381Z,32.70
2019-03-24T01:20:08.987Z,28.70
2019-03-24T01:22:37.941Z,29.23
2019-03-24T01:25:07.047Z,26.67
2019-03-24T01:27:35.994Z,26.03
2019-03-24T01:30:09.282Z,29.90
2019-03-24T01:32:38.264Z,41.50
2019-03-24T01:35:07.479Z,32.70
2019-03-24T01:37:36.423Z,27.50
2019-03-24T01:40:06.729Z,31.87
2019-03-24T01:42:35.714Z,44.07
2019-03-24T01:45:06.808Z,32.07
2019-03-24T01:47:35.721Z,28.70
2019-03-24T01:50:06.487Z,30.30
2019-03-24T01:52:35.391Z,27.60
2019-03-24T01:55:05.844Z,39.13
2019-03-24T01:57:34.757Z,28.70
2019-03-24T02:00:05.098Z,42.27
2019-03-24T02:02:34.010Z,29.40
2019-03-24T02:05:04.456Z,27.83
2019-03-24T02:07:33.359Z,35.17
2019-03-24T02:10:02.319Z,35.97
2019-03-24T02:12:31.219Z,38.57
2019-03-24T02:15:00.287Z,39.87
2019-03-24T02:17:29.376Z,36.37
2019-03-24T02:19:58.361Z,39.33
2019-03-24T02:22:27.280Z,31.53
2019-03-24T02:24:56.223Z,36.40
2019-03-24T02:27:25.126Z,29.43
2019-03-24T02:29:54.074Z,28.00
2019-03-24T02:32:22.971Z,33.13
2019-03-24T02:34:51.928Z,38.80
2019-03-24T02:37:20.847Z,30.00
2019-03-24T02:39:49.787Z,34.63
2019-03-24T02:42:18.695Z,32.73
2019-03-24T02:44:47.648Z,29.90
2019-03-24T02:47:16.553Z,29.73
2019-03-24T02:49:45.517Z,21.87
2019-03-24T02:52:14.432Z,23.37
2019-03-24T02:54:43.519Z,30.37
2019-03-24T02:57:12.477Z,32.83
2019-03-24T02:59:41.486Z,37.70
2019-03-24T03:02:10.402Z,26.20
2019-03-24T03:04:39.342Z,33.17
2019-03-24T03:07:08.255Z,32.57
2019-03-24T03:09:37.172Z,35.07
2019-03-24T03:12:06.286Z,28.90
2019-03-24T03:14:35.236Z,23.97
2019-03-24T03:17:04.192Z,33.57
2019-03-24T03:19:33.138Z,31.70
2019-03-24T03:22:02.137Z,26.70
2019-03-24T03:24:31.057Z,23.37
2019-03-24T03:26:59.998Z,32.40
2019-03-24T03:29:28.900Z,24.20
2019-03-24T03:31:57.862Z,26.23
2019-03-24T03:34:26.764Z,29.13
2019-03-24T03:36:55.715Z,24.73
2019-03-24T03:39:24.649Z,32.90
2019-03-24T03:41:53.606Z,28.63
2019-03-24T03:44:22.515Z,27.70
2019-03-24T03:46:52.933Z,36.00
2019-03-24T03:49:22.184Z,34.53
2019-03-24T03:51:51.120Z,32.53
2019-03-24T03:54:20.033Z,29.10
2019-03-24T03:56:48.986Z,29.33
2019-03-24T03:59:17.903Z,32.03
2019-03-24T04:01:46.843Z,33.57
2019-03-24T04:04:15.749Z,32.43
2019-03-24T04:06:44.710Z,28.77
2019-03-24T04:09:13.613Z,25.80
2019-03-24T04:11:42.560Z,35.40
2019-03-24T04:14:11.458Z,37.10
2019-03-24T04:16:40.404Z,25.80
2019-03-24T04:19:09.315Z,34.20
2019-03-24T04:21:38.270Z,36.33
2019-03-24T04:24:07.177Z,33.03
2019-03-24T04:26:36.126Z,24.70
2019-03-24T04:29:05.026Z,27.50
2019-03-24T04:31:33.968Z,29.43
2019-03-24T04:34:02.879Z,28.93
2019-03-24T04:36:31.835Z,40.63
2019-03-24T04:39:00.748Z,30.53
2019-03-24T04:41:29.685Z,33.67
2019-03-24T04:43:58.599Z,25.07
2019-03-24T04:46:27.500Z,28.47
2019-03-24T04:48:56.451Z,36.70
2019-03-24T04:51:25.355Z,33.07
2019-03-24T04:53:54.306Z,23.37
2019-03-24T04:56:23.209Z,30.53
2019-03-24T04:58:52.165Z,28.30
2019-03-24T05:01:21.076Z,34.70
2019-03-24T05:03:50.020Z,26.93
2019-03-24T05:06:18.932Z,38.57
2019-03-24T05:08:48.388Z,24.80
2019-03-24T05:11:17.292Z,35.17
2019-03-24T05:13:46.230Z,27.20
2019-03-24T05:16:15.137Z,29.27
2019-03-24T05:18:44.099Z,33.77
2019-03-24T05:21:13.001Z,28.63
2019-03-24T05:23:41.947Z,26.93
2019-03-24T05:26:11.224Z,29.77
2019-03-24T05:28:40.175Z,28.27
2019-03-24T05:31:09.069Z,23.57
2019-03-24T05:33:38.025Z,31.53
2019-03-24T05:36:06.930Z,30.80
2019-03-24T05:38:35.877Z,27.67
2019-03-24T05:41:04.781Z,22.73
2019-03-24T05:43:33.740Z,27.50
2019-03-24T05:46:02.639Z,25.27
2019-03-24T05:48:31.585Z,34.13
2019-03-24T05:51:00.488Z,29.93
2019-03-24T05:53:29.438Z,25.10
2019-03-24T05:55:58.350Z,28.63
2019-03-24T05:58:27.509Z,31.07
2019-03-24T06:00:56.427Z,27.33
2019-03-24T06:03:25.328Z,32.00
2019-03-24T06:05:54.336Z,25.70
2019-03-24T06:08:23.234Z,28.97
2019-03-24T06:10:52.180Z,22.70
2019-03-24T06:13:21.075Z,26.67
2019-03-24T06:15:50.036Z,21.67
2019-03-24T06:18:18.934Z,29.70
2019-03-24T06:20:47.882Z,24.90
2019-03-24T06:23:16.809Z,25.50
2019-03-24T06:25:45.726Z,30.23
2019-03-24T06:28:14.632Z,27.63
2019-03-24T06:30:43.595Z,20.03
2019-03-24T06:33:12.483Z,22.17
2019-03-24T06:35:41.453Z,28.90
2019-03-24T06:38:10.365Z,20.30
2019-03-24T06:40:39.455Z,25.73
2019-03-24T06:43:08.345Z,31.27
2019-03-24T06:45:37.300Z,30.93
2019-03-24T06:48:06.216Z,28.57
2019-03-24T06:50:35.226Z,35.63
2019-03-24T06:53:04.165Z,27.73
2019-03-24T06:55:33.611Z,21.83
2019-03-24T06:58:02.522Z,27.10
2019-03-24T07:00:31.466Z,23.20
2019-03-24T07:03:00.375Z,36.57
2019-03-24T07:05:29.333Z,25.33
2019-03-24T07:07:58.645Z,23.70
2019-03-24T07:10:27.574Z,23.83
2019-03-24T07:12:56.489Z,28.43
2019-03-24T07:15:25.450Z,21.87
2019-03-24T07:17:54.351Z,21.13
2019-03-24T07:20:23.262Z,29.77
2019-03-24T07:22:52.212Z,21.97
2019-03-24T07:25:21.107Z,25.60
2019-03-24T07:27:50.063Z,24.00
2019-03-24T07:30:19.978Z,25.57
2019-03-24T07:32:48.966Z,15.77
2019-03-24T07:35:18.410Z,20.77
2019-03-24T07:37:47.567Z,23.13
2019-03-24T07:40:16.583Z,28.73
2019-03-24T07:42:45.529Z,21.67
2019-03-24T07:45:14.639Z,23.93
2019-03-24T07:47:43.587Z,24.97
2019-03-24T07:50:12.686Z,18.23
2019-03-24T07:52:41.638Z,29.13
2019-03-24T07:55:10.542Z,21.60
2019-03-24T07:57:39.493Z,23.00
2019-03-24T08:00:10.152Z,24.80
2019-03-24T08:02:50.674Z,21.83
2019-03-24T08:05:11.177Z,22.27
2019-03-24T08:07:40.125Z,28.30
2019-03-24T08:10:09.233Z,24.87
2019-03-24T08:12:38.225Z,24.40
2019-03-24T08:15:07.401Z,15.73
2019-03-24T08:17:36.358Z,25.07
2019-03-24T08:20:07.636Z,29.83
2019-03-24T08:22:36.573Z,19.57
2019-03-24T08:25:06.792Z,29.93
2019-03-24T08:27:35.742Z,23.10
2019-03-24T08:30:06.755Z,23.73
2019-03-24T08:32:35.707Z,25.00
2019-03-24T08:35:06.428Z,21.57
2019-03-24T08:37:35.372Z,27.80
2019-03-24T08:40:06.276Z,28.37
2019-03-24T08:42:35.231Z,24.27
2019-03-24T08:45:04.534Z,25.17
2019-03-24T08:47:33.479Z,24.07
2019-03-24T08:50:02.380Z,29.30
2019-03-24T08:52:31.333Z,26.20
2019-03-24T08:55:00.383Z,22.77
2019-03-24T08:57:29.353Z,23.03
2019-03-24T08:59:58.296Z,20.20
2019-03-24T09:02:27.198Z,27.00
2019-03-24T09:04:56.152Z,20.93
2019-03-24T09:07:25.060Z,33.60
2019-03-24T09:09:54.011Z,26.37
2019-03-24T09:12:22.918Z,33.17
2019-03-24T09:14:51.862Z,24.37
2019-03-24T09:17:20.776Z,24.53
2019-03-24T09:19:49.714Z,30.87
2019-03-24T09:22:18.623Z,35.13
2019-03-24T09:24:47.576Z,34.73
2019-03-24T09:27:16.485Z,28.03
2019-03-24T09:29:45.444Z,34.27
2019-03-24T09:32:14.344Z,29.07
2019-03-24T09:34:43.284Z,27.67
2019-03-24T09:37:12.191Z,26.67
2019-03-24T09:39:41.525Z,17.13
2019-03-24T09:42:10.435Z,23.30
2019-03-24T09:44:39.377Z,20.17
2019-03-24T09:47:08.282Z,18.50
2019-03-24T09:49:37.230Z,22.50
2019-03-24T09:52:06.136Z,22.73
2019-03-24T09:54:35.087Z,25.03
2019-03-24T09:57:03.987Z,17.50
2019-03-24T09:59:32.965Z,24.67
2019-03-24T10:02:01.935Z,18.50
2019-03-24T10:04:30.878Z,15.83
2019-03-24T10:06:59.791Z,18.20
2019-03-24T10:09:28.737Z,24.10
2019-03-24T10:11:57.637Z,18.30
2019-03-24T10:14:26.598Z,21.83
2019-03-24T10:16:55.789Z,16.87
2019-03-24T10:19:24.899Z,22.23
2019-03-24T10:21:53.856Z,14.10
2019-03-24T10:24:22.765Z,19.83
2019-03-24T10:26:51.808Z,14.27
2019-03-24T10:29:20.715Z,20.50
2019-03-24T10:31:49.670Z,15.77
2019-03-24T10:34:18.584Z,20.27
2019-03-24T10:36:47.529Z,22.37
2019-03-24T10:39:16.434Z,24.60
2019-03-24T10:41:45.415Z,15.67
2019-03-24T10:44:14.327Z,20.93
2019-03-24T10:46:43.279Z,15.57
2019-03-24T10:49:12.183Z,9.10
2019-03-24T10:51:41.134Z,13.53
2019-03-24T10:54:10.066Z,21.03
2019-03-24T10:56:39.014Z,16.07
2019-03-24T10:59:07.943Z,15.93
2019-03-24T11:01:36.889Z,15.93
2019-03-24T11:04:05.935Z,14.77
2019-03-24T11:06:34.879Z,16.87
2019-03-24T11:09:05.278Z,14.53
2019-03-24T11:11:34.231Z,15.53
2019-03-24T11:14:03.146Z,15.50
2019-03-24T11:16:32.093Z,10.37
2019-03-24T11:19:01.006Z,14.93
2019-03-24T11:21:29.956Z,10.37
2019-03-24T11:23:58.865Z,11.77
2019-03-24T11:26:27.810Z,14.90
2019-03-24T11:28:56.718Z,13.37
2019-03-24T11:31:25.663Z,12.37
2019-03-24T11:33:54.586Z,13.87
2019-03-24T11:36:23.511Z,15.97
2019-03-24T11:38:52.464Z,11.37
2019-03-24T11:41:21.365Z,14.80
2019-03-24T11:43:50.326Z,15.13
2019-03-24T11:46:19.239Z,13.83
2019-03-24T11:48:48.197Z,11.27
2019-03-24T11:51:17.112Z,14.37
2019-03-24T11:53:46.059Z,11.90
2019-03-24T11:56:14.967Z,10.30
2019-03-24T11:58:43.990Z,13.97
2019-03-24T12:01:12.918Z,12.17
2019-03-24T12:03:41.859Z,10.77
2019-03-24T12:06:14.676Z,14.20
2019-03-24T12:08:41.355Z,14.53
2019-03-24T12:11:10.267Z,8.20
2019-03-24T12:13:39.205Z,8.77
2019-03-24T12:16:08.109Z,14.00
2019-03-24T12:18:37.057Z,10.90
2019-03-24T12:21:05.968Z,12.10
2019-03-24T12:23:34.915Z,10.53
2019-03-24T12:26:03.824Z,4.67
2019-03-24T12:28:32.779Z,12.33
2019-03-24T12:31:01.706Z,10.10
2019-03-24T12:33:30.639Z,8.97
2019-03-24T12:35:59.540Z,8.40
2019-03-24T12:38:28.495Z,9.70
2019-03-24T12:40:57.414Z,9.90
2019-03-24T12:43:26.323Z,11.30
2019-03-24T12:45:55.278Z,7.03
2019-03-24T12:48:24.237Z,8.30
2019-03-24T12:50:53.233Z,11.10
2019-03-24T12:53:22.146Z,9.17
2019-03-24T12:55:51.096Z,6.10
2019-03-24T12:58:19.999Z,6.23
2019-03-24T13:00:48.937Z,10.23
2019-03-24T13:03:17.848Z,10.20
2019-03-24T13:05:46.796Z,7.83
2019-03-24T13:08:16.804Z,5.63
2019-03-24T13:10:46.647Z,10.03
2019-03-24T13:13:15.555Z,7.43
2019-03-24T13:15:44.521Z,10.17
2019-03-24T13:18:14.040Z,6.67
2019-03-24T13:20:42.979Z,7.97
2019-03-24T13:23:11.871Z,7.50
2019-03-24T13:25:40.833Z,7.17
2019-03-24T13:28:09.717Z,8.47
2019-03-24T13:30:38.666Z,5.80
2019-03-24T13:33:07.628Z,5.03
2019-03-24T13:35:36.557Z,10.10
2019-03-24T13:38:05.464Z,7.17
2019-03-24T13:40:34.418Z,9.60
2019-03-24T13:43:03.315Z,8.87
2019-03-24T13:45:32.251Z,7.03
2019-03-24T13:48:01.164Z,8.97
2019-03-24T13:50:31.764Z,8.93
2019-03-24T13:53:00.668Z,10.63
2019-03-24T13:55:29.698Z,10.03
2019-03-24T13:57:58.608Z,7.03
2019-03-24T14:00:27.558Z,8.63
2019-03-24T14:02:56.465Z,8.77
2019-03-24T14:05:25.598Z,9.97
2019-03-24T14:07:54.506Z,12.20
2019-03-24T14:10:23.460Z,9.57
2019-03-24T14:12:52.410Z,12.93
2019-03-24T14:15:21.352Z,8.87
2019-03-24T14:17:50.374Z,9.80
2019-03-24T14:20:19.393Z,15.70
2019-03-24T14:22:48.333Z,9.13
2019-03-24T14:25:17.226Z,10.77
2019-03-24T14:27:46.168Z,9.50
2019-03-24T14:30:15.774Z,12.17
2019-03-24T14:32:44.724Z,8.20
2019-03-24T14:35:14.621Z,10.97
2019-03-24T14:37:43.540Z,12.13
2019-03-24T14:40:14.211Z,9.00
2019-03-24T14:42:43.158Z,12.90
2019-03-24T14:45:12.173Z,8.67
2019-03-24T14:47:41.114Z,7.17
2019-03-24T14:50:10.347Z,16.40
2019-03-24T14:52:39.419Z,14.77
2019-03-24T14:55:08.314Z,15.13
2019-03-24T14:57:37.261Z,8.13
2019-03-24T15:00:08.669Z,14.30
2019-03-24T15:02:37.615Z,13.97
2019-03-24T15:05:08.319Z,10.57
2019-03-24T15:07:37.266Z,14.67
2019-03-24T15:10:07.978Z,8.03
2019-03-24T15:12:36.929Z,10.30
2019-03-24T15:15:07.419Z,14.33
2019-03-24T15:17:36.585Z,13.00
2019-03-24T15:20:07.492Z,12.03
2019-03-24T15:22:36.445Z,11.60
2019-03-24T15:25:07.017Z,15.83
2019-03-24T15:27:35.965Z,11.93
2019-03-24T15:30:07.812Z,13.27
2019-03-24T15:32:36.878Z,10.87
2019-03-24T15:35:07.350Z,12.23
2019-03-24T15:37:37.189Z,14.97
2019-03-24T15:40:06.534Z,11.67
2019-03-24T15:42:35.898Z,9.17
2019-03-24T15:45:07.201Z,10.53
2019-03-24T15:47:36.847Z,6.50
2019-03-24T15:50:09.933Z,10.50
2019-03-24T15:52:39.168Z,14.03
2019-03-24T15:55:08.265Z,10.10
2019-03-24T15:57:37.936Z,10.53
2019-03-24T16:00:09.189Z,11.30
2019-03-24T16:02:38.087Z,9.30
2019-03-24T16:05:07.338Z,16.03
2019-03-24T16:07:36.292Z,11.40
2019-03-24T16:10:07.243Z,11.33
2019-03-24T16:12:36.410Z,15.10
2019-03-24T16:15:08.800Z,8.23
2019-03-24T16:17:37.970Z,11.37
2019-03-24T16:20:08.628Z,7.10
2019-03-24T16:22:38.729Z,12.70
2019-03-24T16:25:08.621Z,8.63
2019-03-24T16:27:37.595Z,11.60
2019-03-24T16:30:07.862Z,11.37
2019-03-24T16:32:36.762Z,10.10
2019-03-24T16:35:06.944Z,14.10
2019-03-24T16:37:36.388Z,8.53
2019-03-24T16:40:09.336Z,13.00
2019-03-24T16:42:38.262Z,13.37
2019-03-24T16:45:08.096Z,9.87
2019-03-24T16:47:37.004Z,14.63
2019-03-24T16:50:07.464Z,13.00
2019-03-24T16:52:36.390Z,17.33
2019-03-24T16:55:07.633Z,11.20
2019-03-24T16:57:36.532Z,15.37
2019-03-24T17:00:08.932Z,15.77
2019-03-24T17:02:38.033Z,14.17
2019-03-24T17:05:08.721Z,13.00
2019-03-24T17:07:37.715Z,15.37
2019-03-24T17:10:07.968Z,18.33
2019-03-24T17:12:36.981Z,18.43
2019-03-24T17:15:09.161Z,17.30
2019-03-24T17:17:38.063Z,10.53
2019-03-24T17:20:08.512Z,16.73
2019-03-24T17:22:37.724Z,14.83
2019-03-24T17:25:07.073Z,16.83
2019-03-24T17:27:35.973Z,18.07
2019-03-24T17:30:07.945Z,16.67
2019-03-24T17:32:36.861Z,12.03
2019-03-24T17:35:07.472Z,18.13
2019-03-24T17:37:36.398Z,14.83
2019-03-24T17:40:08.371Z,13.97
2019-03-24T17:42:37.409Z,15.27
2019-03-24T17:45:11.116Z,17.50
2019-03-24T17:47:40.130Z,19.27
2019-03-24T17:50:12.010Z,19.47
2019-03-24T17:52:41.129Z,23.77
2019-03-24T17:55:11.442Z,20.13
2019-03-24T17:57:40.386Z,24.03
2019-03-24T18:00:12.567Z,15.57
2019-03-24T18:02:41.516Z,19.60
2019-03-24T18:05:10.926Z,22.80
2019-03-24T18:07:39.874Z,15.47
2019-03-24T18:10:11.385Z,14.63
2019-03-24T18:12:40.397Z,23.03
2019-03-24T18:15:10.819Z,25.13
2019-03-24T18:17:39.762Z,18.60
2019-03-24T18:20:11.072Z,16.27
2019-03-24T18:22:40.019Z,14.03
2019-03-24T18:25:09.624Z,21.23
2019-03-24T18:27:38.772Z,20.33
2019-03-24T18:30:10.379Z,20.70
2019-03-24T18:32:39.321Z,20.97
2019-03-24T18:35:09.340Z,22.60
2019-03-24T18:37:38.525Z,20.60
2019-03-24T18:40:10.221Z,19.70
2019-03-24T18:42:39.302Z,16.20
2019-03-24T18:45:10.665Z,21.07
2019-03-24T18:47:39.623Z,18.00
2019-03-24T18:50:09.632Z,19.63
2019-03-24T18:52:38.588Z,14.27
2019-03-24T18:55:08.483Z,19.47
2019-03-24T18:57:37.447Z,17.70
2019-03-24T19:00:09.489Z,17.60
2019-03-24T19:02:38.566Z,19.70
2019-03-24T19:05:07.986Z,22.37
2019-03-24T19:07:37.959Z,18.80
2019-03-24T19:10:08.918Z,21.70
2019-03-24T19:12:38.065Z,18.27
2019-03-24T19:15:08.675Z,24.00
2019-03-24T19:17:37.632Z,18.93
2019-03-24T19:20:08.035Z,16.23
2019-03-24T19:22:37.097Z,26.43
2019-03-24T19:25:07.426Z,15.53
2019-03-24T19:27:36.376Z,18.17
2019-03-24T19:30:11.031Z,17.33
2019-03-24T19:32:39.967Z,18.73
2019-03-24T19:35:09.159Z,17.90
2019-03-24T19:37:38.315Z,16.63
2019-03-24T19:40:28.077Z,19.77
2019-03-24T19:42:57.029Z,22.10
2019-03-24T19:45:25.932Z,17.23
2019-03-24T19:47:56.187Z,17.47
2019-03-24T19:50:27.628Z,16.73
2019-03-24T19:52:56.725Z,21.07
2019-03-24T19:55:25.625Z,18.40
2019-03-24T19:57:54.608Z,13.60
2019-03-24T20:00:23.718Z,20.27
2019-03-24T20:02:52.961Z,22.97
2019-03-24T20:05:22.925Z,22.83
2019-03-24T20:07:52.108Z,21.77
2019-03-24T20:10:22.214Z,15.53
2019-03-24T20:12:51.125Z,17.63
2019-03-24T20:15:20.069Z,16.13
2019-03-24T20:17:48.972Z,16.70
2019-03-24T20:20:17.922Z,24.27
2019-03-24T20:22:56.000Z,15.70
2019-03-24T20:25:17.425Z,24.27
2019-03-24T20:27:46.338Z,21.13
2019-03-24T20:30:15.699Z,24.63
2019-03-24T20:32:44.587Z,12.13
2019-03-24T20:35:15.002Z,22.37
2019-03-24T20:37:43.908Z,18.57
2019-03-24T20:40:13.455Z,21.03
2019-03-24T20:42:42.357Z,19.60
2019-03-24T20:45:11.607Z,16.33
2019-03-24T20:47:40.515Z,17.60
2019-03-24T20:50:10.554Z,23.40
2019-03-24T20:52:39.467Z,22.50
2019-03-24T20:55:09.718Z,23.30
2019-03-24T20:57:38.634Z,17.83
2019-03-24T21:00:08.586Z,21.60
2019-03-24T21:02:37.480Z,21.30
2019-03-24T21:05:06.856Z,17.73
2019-03-24T21:07:35.763Z,24.63
2019-03-24T21:10:06.715Z,17.20
2019-03-24T21:12:36.124Z,25.47
2019-03-24T21:15:08.041Z,31.00
2019-03-24T21:17:37.047Z,21.80
2019-03-24T21:20:07.985Z,22.83
2019-03-24T21:22:36.869Z,16.70
2019-03-24T21:25:06.724Z,26.57
2019-03-24T21:27:36.244Z,18.60
2019-03-24T21:30:08.251Z,27.57
2019-03-24T21:32:37.153Z,25.70
2019-03-24T21:35:07.209Z,16.83
2019-03-24T21:37:36.115Z,23.17
2019-03-24T21:40:06.976Z,25.90
2019-03-24T21:42:36.012Z,18.83
2019-03-24T21:45:07.453Z,18.20
2019-03-24T21:47:36.358Z,19.43
2019-03-24T21:50:07.374Z,19.70
2019-03-24T21:52:36.330Z,25.50
2019-03-24T21:55:06.034Z,23.70
2019-03-24T21:57:35.000Z,19.13
2019-03-24T22:00:07.734Z,17.33
2019-03-24T22:02:37.694Z,16.33
2019-03-24T22:05:08.743Z,27.77
2019-03-24T22:07:37.846Z,25.53
2019-03-24T22:10:07.851Z,23.83
2019-03-24T22:12:36.914Z,19.17
2019-03-24T22:15:09.923Z,20.97
2019-03-24T22:17:38.859Z,23.70
2019-03-24T22:20:08.166Z,18.57
2019-03-24T22:22:37.156Z,18.43
2019-03-24T22:25:06.676Z,18.73
2019-03-24T22:27:35.696Z,18.93
2019-03-24T22:30:07.109Z,22.60
2019-03-24T22:32:36.052Z,18.47
2019-03-24T22:35:06.195Z,16.80
2019-03-24T22:37:35.139Z,18.17
2019-03-24T22:40:05.946Z,16.50
2019-03-24T22:42:35.418Z,23.80
2019-03-24T22:45:04.856Z,16.00
2019-03-24T22:47:33.804Z,14.17
2019-03-24T22:50:02.720Z,16.47
2019-03-24T22:52:32.283Z,21.10
2019-03-24T22:55:01.191Z,19.97
2019-03-24T22:57:32.561Z,18.77
2019-03-24T23:00:00.682Z,20.73
2019-03-24T23:02:29.648Z,18.40
2019-03-24T23:04:58.560Z,15.63
2019-03-24T23:07:27.507Z,20.73
2019-03-24T23:09:56.417Z,13.70
2019-03-24T23:12:25.369Z,17.77
2019-03-24T23:14:54.286Z,13.00
2019-03-24T23:17:23.219Z,16.43
2019-03-24T23:19:52.129Z,15.40
2019-03-24T23:22:21.327Z,13.67
2019-03-24T23:24:50.226Z,14.53
2019-03-24T23:27:19.140Z,12.13
2019-03-24T23:29:48.087Z,11.33
2019-03-24T23:32:16.992Z,15.27
2019-03-24T23:34:45.950Z,11.90
2019-03-24T23:37:14.855Z,13.00
2019-03-24T23:39:43.803Z,23.37
2019-03-24T23:42:12.710Z,17.30
2019-03-24T23:44:41.654Z,16.80
2019-03-24T23:47:10.856Z,11.80
2019-03-24T23:49:39.810Z,14.67
2019-03-24T23:52:08.710Z,16.63
2019-03-24T23:54:37.663Z,14.07
2019-03-24T23:57:06.563Z,15.90
2019-03-24T23:59:35.518Z,17.97
